Time;durP1;ratioP1;P1;durP2;ratioP2;P2;SDS_P1;SDS_P2;PMS_P1;PMS_P2;Temp;Humidity;BMP_temperature;BMP_pressure;BME280_temperature;BME280_humidity;BME280_pressure;Samples;Min_cycle;Max_cycle;Signal;HPM_P1;HPM_P2
2023/08/07 00:02:22;;;;;;;3.43;2.80;;;15.40;99.90;;;;;;5090295;28;20248;-61
2023/08/07 00:04:47;;;;;;;3.40;3.10;;;15.50;99.90;;;;;;5098426;28;20205;-61
2023/08/07 00:07:13;;;;;;;4.80;3.50;;;15.60;99.90;;;;;;5064784;28;20212;-61
2023/08/07 00:09:38;;;;;;;6.33;3.57;;;15.50;99.90;;;;;;5097185;28;20690;-61
2023/08/07 00:12:04;;;;;;;5.37;3.50;;;15.50;99.90;;;;;;5070326;28;20212;-62
2023/08/07 00:14:30;;;;;;;5.40;3.63;;;15.40;99.90;;;;;;5093843;28;20211;-65
2023/08/07 00:16:55;;;;;;;7.47;4.50;;;15.30;99.90;;;;;;5099362;27;20221;-56
2023/08/07 00:19:21;;;;;;;4.17;3.73;;;15.20;99.90;;;;;;5100832;28;20690;-58
2023/08/07 00:21:46;;;;;;;4.17;3.70;;;15.30;99.90;;;;;;5098605;28;20620;-59
2023/08/07 00:24:12;;;;;;;5.60;3.60;;;15.30;99.90;;;;;;5072123;28;20189;-59
2023/08/07 00:26:37;;;;;;;6.30;4.40;;;15.40;99.90;;;;;;5103372;27;20907;-59
2023/08/07 00:29:03;;;;;;;6.83;3.63;;;15.30;99.90;;;;;;5093507;28;20255;-63
2023/08/07 00:31:31;;;;;;;6.70;3.83;;;15.30;99.90;;;;;;5087387;28;20234;-63
2023/08/07 00:33:59;;;;;;;7.33;3.60;;;15.30;99.90;;;;;;5091014;28;20541;-60
2023/08/07 00:36:25;;;;;;;6.17;4.40;;;15.20;99.90;;;;;;5104660;27;20213;-60
2023/08/07 00:38:51;;;;;;;5.30;3.43;;;15.20;99.90;;;;;;5092912;27;20193;-60
2023/08/07 00:41:18;;;;;;;4.77;3.73;;;15.10;99.90;;;;;;5062491;28;20181;-60
2023/08/07 00:43:43;;;;;;;7.60;3.73;;;15.10;99.90;;;;;;5099631;27;20273;-60
2023/08/07 00:46:09;;;;;;;5.30;4.20;;;15.20;99.90;;;;;;5065160;28;20189;-60
2023/08/07 00:48:35;;;;;;;5.07;3.40;;;15.10;99.90;;;;;;5095159;28;20229;-60
2023/08/07 00:51:02;;;;;;;5.20;3.93;;;15.10;99.90;;;;;;5084644;28;20194;-61
2023/08/07 00:53:27;;;;;;;5.17;3.67;;;15.00;99.90;;;;;;5067392;28;20216;-60
2023/08/07 00:55:53;;;;;;;5.30;3.50;;;15.00;99.90;;;;;;5097355;28;20581;-60
2023/08/07 00:58:19;;;;;;;5.10;3.70;;;15.00;99.90;;;;;;5100376;27;20192;-60
2023/08/07 01:00:44;;;;;;;4.43;3.90;;;15.00;99.90;;;;;;5104345;27;20192;-59
2023/08/07 01:03:12;;;;;;;5.77;3.80;;;14.90;99.90;;;;;;5092642;28;20342;-64
2023/08/07 01:05:38;;;;;;;5.90;3.90;;;15.00;99.90;;;;;;5089771;28;20192;-62
2023/08/07 01:08:04;;;;;;;6.73;4.17;;;15.20;99.90;;;;;;5080990;28;20811;-62
2023/08/07 01:10:51;;;;;;;5.30;3.77;;;15.40;99.90;;;;;;5095297;28;20203;-62
2023/08/07 01:13:26;;;;;;;5.60;4.57;;;15.50;99.90;;;;;;5094141;28;20200;-62
2023/08/07 01:15:57;;;;;;;5.13;3.60;;;15.50;99.90;;;;;;5075102;28;21121;-65
2023/08/07 01:18:24;;;;;;;6.03;3.70;;;15.40;99.90;;;;;;5077236;28;20640;-59
2023/08/07 01:20:49;;;;;;;5.33;3.60;;;15.20;99.90;;;;;;5101459;28;20802;-59
2023/08/07 01:23:15;;;;;;;6.87;3.57;;;15.30;99.90;;;;;;5098648;28;20233;-57
2023/08/07 01:25:40;;;;;;;3.67;3.20;;;15.40;99.90;;;;;;5102763;28;20189;-60
2023/08/07 01:28:10;;;;;;;6.17;3.27;;;15.50;99.90;;;;;;5101947;28;20223;-59
2023/08/07 01:30:40;;;;;;;4.03;3.53;;;15.30;99.90;;;;;;5097529;28;20898;-58
2023/08/07 01:33:16;;;;;;;7.53;3.63;;;15.50;99.90;;;;;;5099056;28;20197;-61
2023/08/07 01:35:49;;;;;;;6.37;3.87;;;15.50;99.90;;;;;;5096566;27;20214;-63
2023/08/07 01:38:16;;;;;;;3.17;2.67;;;15.60;99.90;;;;;;5081257;28;20192;-61
2023/08/07 01:40:42;;;;;;;3.97;3.20;;;15.70;99.90;;;;;;5101436;27;20197;-61
2023/08/07 01:43:08;;;;;;;3.57;3.03;;;15.60;99.90;;;;;;5097352;27;20295;-61
2023/08/07 01:45:34;;;;;;;3.40;3.10;;;15.60;99.90;;;;;;5100230;27;20184;-58
2023/08/07 01:48:00;;;;;;;4.23;3.27;;;15.50;99.90;;;;;;5097960;28;20946;-59
2023/08/07 01:50:26;;;;;;;5.13;3.90;;;15.40;99.90;;;;;;5096537;28;20188;-58
2023/08/07 01:52:51;;;;;;;5.73;3.60;;;15.40;99.90;;;;;;5098579;28;20197;-59
2023/08/07 01:55:18;;;;;;;4.93;3.17;;;15.30;99.90;;;;;;5103502;28;20196;-58
2023/08/07 01:57:44;;;;;;;3.80;3.50;;;15.20;99.90;;;;;;5097088;28;20199;-61
2023/08/07 02:00:10;;;;;;;6.90;3.50;;;15.10;99.90;;;;;;5099224;28;20189;-62
2023/08/07 02:02:36;;;;;;;6.00;4.03;;;15.00;99.90;;;;;;5098617;28;20772;-61
2023/08/07 02:05:03;;;;;;;6.27;3.63;;;14.90;99.90;;;;;;5084718;28;20285;-62
2023/08/07 02:07:28;;;;;;;6.87;4.10;;;15.00;99.90;;;;;;5095174;27;20205;-60
2023/08/07 02:09:54;;;;;;;11.47;4.60;;;15.20;99.90;;;;;;5092272;28;20177;-61
2023/08/07 02:12:19;;;;;;;5.20;3.70;;;15.00;99.90;;;;;;5101589;28;20968;-58
2023/08/07 02:14:45;;;;;;;4.67;4.00;;;14.90;99.90;;;;;;5102811;28;20271;-57
2023/08/07 02:17:10;;;;;;;5.30;3.67;;;15.00;99.90;;;;;;5101987;28;20307;-58
2023/08/07 02:19:36;;;;;;;5.53;4.13;;;14.80;99.90;;;;;;5098231;28;20209;-68
2023/08/07 02:22:02;;;;;;;4.97;4.47;;;14.70;99.90;;;;;;5102013;28;20283;-58
2023/08/07 02:24:27;;;;;;;8.57;4.77;;;14.60;99.90;;;;;;5088609;28;20184;-58
2023/08/07 02:26:53;;;;;;;10.50;5.10;;;14.70;99.90;;;;;;5101842;28;20200;-58
2023/08/07 02:29:18;;;;;;;5.30;3.87;;;14.80;99.90;;;;;;5083979;28;20184;-59
2023/08/07 02:31:44;;;;;;;7.53;4.30;;;14.80;99.90;;;;;;5095606;28;20892;-59
2023/08/07 02:34:09;;;;;;;8.23;4.63;;;14.70;99.90;;;;;;5095682;28;20192;-59
2023/08/07 02:36:35;;;;;;;5.23;4.20;;;14.80;99.90;;;;;;5083282;28;20218;-59
2023/08/07 02:39:00;;;;;;;5.50;4.13;;;14.80;99.90;;;;;;5092163;28;20193;-60
2023/08/07 02:41:26;;;;;;;5.27;4.77;;;14.70;99.90;;;;;;5094466;28;20193;-59
2023/08/07 02:43:51;;;;;;;5.13;4.73;;;14.90;99.90;;;;;;5092057;28;20203;-59
2023/08/07 02:46:17;;;;;;;7.43;5.53;;;14.90;99.90;;;;;;5079985;28;20718;-59
2023/08/07 02:48:43;;;;;;;7.50;5.60;;;14.80;99.90;;;;;;5100387;28;20205;-60
2023/08/07 02:51:09;;;;;;;6.33;5.50;;;15.00;99.90;;;;;;5102512;28;20181;-59
2023/08/07 02:53:34;;;;;;;5.93;5.23;;;15.10;99.90;;;;;;5099178;28;20999;-58
2023/08/07 02:56:00;;;;;;;11.20;5.90;;;15.10;99.90;;;;;;5100639;28;20213;-60
2023/08/07 02:58:25;;;;;;;6.37;5.80;;;15.10;99.90;;;;;;5098555;28;20200;-58
2023/08/07 03:00:51;;;;;;;8.33;6.40;;;15.20;99.90;;;;;;5082115;28;20283;-59
2023/08/07 03:03:16;;;;;;;9.07;5.90;;;15.10;99.90;;;;;;5098903;28;20223;-59
2023/08/07 03:05:50;;;;;;;6.37;5.77;;;15.10;99.90;;;;;;5100483;28;20978;-57
2023/08/07 03:08:15;;;;;;;5.83;5.23;;;15.10;99.90;;;;;;5098318;28;20288;-59
2023/08/07 03:10:41;;;;;;;7.13;5.43;;;15.10;99.90;;;;;;5083166;28;20267;-60
2023/08/07 03:13:07;;;;;;;7.67;6.37;;;15.10;99.90;;;;;;5100310;28;20376;-60
2023/08/07 03:15:32;;;;;;;7.47;6.20;;;15.00;99.90;;;;;;5098164;28;20216;-59
2023/08/07 03:17:57;;;;;;;6.70;5.93;;;14.90;99.90;;;;;;5082616;28;20209;-59
2023/08/07 03:20:23;;;;;;;8.87;6.47;;;14.90;99.90;;;;;;5098130;28;20705;-59
2023/08/07 03:22:48;;;;;;;7.77;6.17;;;15.00;99.90;;;;;;5099856;28;20709;-59
2023/08/07 03:25:14;;;;;;;8.53;5.73;;;15.00;99.90;;;;;;5100373;28;20189;-60
2023/08/07 03:27:39;;;;;;;8.90;6.13;;;15.00;99.90;;;;;;5079657;28;20201;-60
2023/08/07 03:30:06;;;;;;;7.67;5.97;;;14.90;99.90;;;;;;5100034;28;20584;-60
2023/08/07 03:32:31;;;;;;;7.07;6.17;;;15.00;99.90;;;;;;5074971;28;20671;-59
2023/08/07 03:34:57;;;;;;;8.53;6.33;;;14.90;99.90;;;;;;5095057;28;20268;-60
2023/08/07 03:37:22;;;;;;;9.17;5.80;;;14.90;99.90;;;;;;5098014;28;20248;-60
2023/08/07 03:39:48;;;;;;;9.03;6.47;;;15.00;99.90;;;;;;5099337;28;20189;-59
2023/08/07 03:42:15;;;;;;;6.77;6.07;;;14.90;99.90;;;;;;5098000;28;20200;-59
2023/08/07 03:44:40;;;;;;;9.13;6.63;;;14.90;99.90;;;;;;5103326;28;20173;-60
2023/08/07 03:47:06;;;;;;;6.77;5.90;;;15.00;99.90;;;;;;5071360;28;20230;-59
2023/08/07 03:49:31;;;;;;;9.03;6.57;;;14.90;99.90;;;;;;5096514;28;20192;-60
2023/08/07 03:51:58;;;;;;;9.13;6.67;;;14.90;99.90;;;;;;5076191;28;20189;-58
2023/08/07 03:54:24;;;;;;;7.30;6.33;;;14.90;99.90;;;;;;5083909;28;20257;-59
2023/08/07 03:56:51;;;;;;;9.80;6.50;;;15.00;99.90;;;;;;5096334;28;20245;-60
2023/08/07 03:59:16;;;;;;;8.57;6.00;;;15.10;99.90;;;;;;5102188;28;20176;-60
2023/08/07 04:01:42;;;;;;;13.13;6.43;;;15.10;99.90;;;;;;5095978;28;20212;-60
2023/08/07 04:04:07;;;;;;;6.87;6.03;;;15.10;99.90;;;;;;5100109;28;20169;-58
2023/08/07 04:06:33;;;;;;;6.30;5.47;;;15.10;99.90;;;;;;5093529;28;20196;-60
2023/08/07 04:08:58;;;;;;;8.10;5.90;;;15.10;99.90;;;;;;5098815;28;20721;-60
2023/08/07 04:11:24;;;;;;;10.93;6.40;;;15.00;99.90;;;;;;5101345;28;20238;-60
2023/08/07 04:13:50;;;;;;;7.97;5.43;;;14.90;99.90;;;;;;5098942;28;20196;-60
2023/08/07 04:16:16;;;;;;;8.23;5.33;;;14.90;99.90;;;;;;5096653;28;20217;-60
2023/08/07 04:18:42;;;;;;;6.20;5.60;;;15.00;99.90;;;;;;5098734;28;20329;-61
2023/08/07 04:21:08;;;;;;;6.30;5.70;;;15.00;99.90;;;;;;5097471;28;20201;-60
2023/08/07 04:23:33;;;;;;;9.77;5.83;;;15.10;99.90;;;;;;5096712;28;20193;-60
2023/08/07 04:25:59;;;;;;;6.03;5.43;;;15.00;99.90;;;;;;5098874;28;20188;-59
2023/08/07 04:28:25;;;;;;;7.60;5.83;;;14.90;99.90;;;;;;5099664;28;20208;-60
2023/08/07 04:30:51;;;;;;;5.87;5.27;;;14.90;99.90;;;;;;5098749;28;20201;-62
2023/08/07 04:33:17;;;;;;;12.43;5.80;;;14.90;99.90;;;;;;5095510;28;20278;-59
2023/08/07 04:35:43;;;;;;;6.00;4.73;;;14.90;99.90;;;;;;5101457;28;20289;-60
2023/08/07 04:38:09;;;;;;;7.00;4.77;;;15.00;99.90;;;;;;5095559;28;20217;-60
2023/08/07 04:40:34;;;;;;;6.70;5.27;;;15.00;99.90;;;;;;5100685;28;20184;-60
2023/08/07 04:43:00;;;;;;;8.13;4.80;;;15.00;99.90;;;;;;5097044;28;20249;-59
2023/08/07 04:45:26;;;;;;;7.67;4.47;;;15.00;99.90;;;;;;5099349;28;20996;-59
2023/08/07 04:47:52;;;;;;;7.13;5.83;;;15.00;99.90;;;;;;5100925;28;20200;-60
2023/08/07 04:50:17;;;;;;;6.00;5.40;;;15.00;99.90;;;;;;5094646;28;20866;-58
2023/08/07 04:52:43;;;;;;;5.93;4.90;;;15.10;99.90;;;;;;5100734;28;20212;-60
2023/08/07 04:55:08;;;;;;;7.13;4.90;;;15.10;99.90;;;;;;5097280;28;20670;-59
2023/08/07 04:57:34;;;;;;;5.40;4.50;;;15.00;99.90;;;;;;5101993;27;20217;-58
2023/08/07 04:59:59;;;;;;;8.03;5.07;;;14.90;99.90;;;;;;5098798;28;20208;-59
2023/08/07 05:02:25;;;;;;;5.40;4.30;;;15.00;99.90;;;;;;5096820;28;20303;-59
2023/08/07 05:04:50;;;;;;;6.80;4.47;;;15.00;99.90;;;;;;5098678;28;20236;-59
2023/08/07 05:07:16;;;;;;;5.33;4.90;;;15.00;99.90;;;;;;5097901;28;20204;-60
2023/08/07 05:09:41;;;;;;;6.20;5.00;;;14.90;99.90;;;;;;5095737;28;20196;-60
2023/08/07 05:12:07;;;;;;;4.87;4.33;;;15.00;99.90;;;;;;5100497;28;20184;-59
2023/08/07 05:14:33;;;;;;;8.70;4.20;;;15.10;99.90;;;;;;5095202;28;20253;-60
2023/08/07 05:16:59;;;;;;;5.07;4.40;;;14.90;99.90;;;;;;5099549;28;20225;-59
2023/08/07 05:19:25;;;;;;;5.20;3.60;;;14.90;99.90;;;;;;5094972;28;20832;-59
2023/08/07 05:21:50;;;;;;;4.83;3.70;;;15.00;99.90;;;;;;5099511;28;20272;-60
2023/08/07 05:24:17;;;;;;;5.27;4.03;;;15.10;99.90;;;;;;5088005;28;20252;-59
2023/08/07 05:26:42;;;;;;;8.40;4.37;;;15.00;99.90;;;;;;5098226;28;20205;-59
2023/08/07 05:29:08;;;;;;;5.87;4.07;;;15.00;99.90;;;;;;5084152;28;20193;-59
2023/08/07 05:31:33;;;;;;;5.00;4.20;;;14.90;99.90;;;;;;5094064;28;20644;-63
2023/08/07 05:33:59;;;;;;;6.97;4.00;;;15.00;99.90;;;;;;5088782;28;20231;-62
2023/08/07 05:36:25;;;;;;;6.73;4.67;;;14.80;99.90;;;;;;5079520;28;20216;-60
2023/08/07 05:38:51;;;;;;;6.03;4.57;;;14.80;99.90;;;;;;5080567;28;20513;-62
2023/08/07 05:41:16;;;;;;;7.37;4.10;;;14.80;99.90;;;;;;5086732;28;20189;-62
2023/08/07 05:43:42;;;;;;;14.70;4.80;;;14.80;99.90;;;;;;5093155;28;20221;-66
2023/08/07 05:46:07;;;;;;;6.33;3.60;;;14.90;99.90;;;;;;5095941;28;20181;-66
2023/08/07 05:48:33;;;;;;;4.63;3.93;;;14.90;99.90;;;;;;5099910;28;20208;-59
2023/08/07 05:50:58;;;;;;;5.90;4.20;;;14.90;99.90;;;;;;5085627;28;20193;-66
2023/08/07 05:53:24;;;;;;;5.53;3.57;;;15.00;99.90;;;;;;5105706;28;20204;-65
2023/08/07 05:55:49;;;;;;;5.90;4.87;;;14.90;99.90;;;;;;5103290;28;20205;-57
2023/08/07 05:58:15;;;;;;;4.97;3.77;;;15.00;99.90;;;;;;5094472;28;20221;-59
2023/08/07 06:00:41;;;;;;;4.57;3.67;;;15.20;99.90;;;;;;5093107;28;20270;-60
2023/08/07 06:03:06;;;;;;;4.23;3.43;;;15.20;99.90;;;;;;5103402;28;20308;-63
2023/08/07 06:05:32;;;;;;;4.77;4.30;;;15.20;99.90;;;;;;5088552;28;20724;-65
2023/08/07 06:07:57;;;;;;;7.70;4.30;;;15.20;99.90;;;;;;5101278;28;20668;-68
2023/08/07 06:10:23;;;;;;;5.67;4.00;;;15.30;99.90;;;;;;5097618;28;20236;-69
2023/08/07 06:12:48;;;;;;;5.27;3.70;;;15.30;99.90;;;;;;5097834;28;20192;-68
2023/08/07 06:15:14;;;;;;;3.30;3.00;;;15.30;99.90;;;;;;5084898;28;20192;-68
2023/08/07 06:17:39;;;;;;;7.47;4.67;;;15.40;99.90;;;;;;5100231;28;20220;-64
2023/08/07 06:20:09;;;;;;;6.73;3.77;;;15.40;99.90;;;;;;5094990;28;20203;-66
2023/08/07 06:22:34;;;;;;;6.37;3.67;;;15.40;99.90;;;;;;5085713;28;20201;-62
2023/08/07 06:25:00;;;;;;;6.43;4.20;;;15.50;99.90;;;;;;5100174;27;20212;-77
2023/08/07 06:27:25;;;;;;;6.80;3.30;;;15.60;99.90;;;;;;5109360;27;20204;-73
2023/08/07 06:29:51;;;;;;;5.80;3.50;;;15.70;99.90;;;;;;5106098;27;20234;-73
2023/08/07 06:32:18;;;;;;;5.67;3.10;;;15.70;99.90;;;;;;5097250;28;20197;-72
2023/08/07 06:34:43;;;;;;;5.50;3.33;;;15.70;99.90;;;;;;5087742;28;20193;-72
2023/08/07 06:37:09;;;;;;;5.17;3.17;;;15.80;99.90;;;;;;5078089;28;20270;-73
2023/08/07 06:39:34;;;;;;;5.07;2.97;;;15.90;99.90;;;;;;5095661;28;20224;-61
2023/08/07 06:42:00;;;;;;;4.10;3.03;;;15.90;99.90;;;;;;5091601;27;20189;-61
2023/08/07 06:44:26;;;;;;;3.37;3.07;;;15.90;99.90;;;;;;5086708;28;20190;-61
2023/08/07 06:46:52;;;;;;;4.10;3.20;;;16.00;99.90;;;;;;5101327;27;20201;-66
2023/08/07 06:49:18;;;;;;;3.97;2.73;;;16.20;99.90;;;;;;5119425;27;20196;-71
2023/08/07 06:51:43;;;;;;;4.63;2.60;;;16.30;99.90;;;;;;5099275;27;20538;-69
2023/08/07 06:54:09;;;;;;;5.87;3.03;;;16.40;99.90;;;;;;5094530;28;20189;-61
2023/08/07 06:56:34;;;;;;;4.30;2.50;;;16.50;99.90;;;;;;5095468;28;20262;-56
2023/08/07 06:59:00;;;;;;;7.37;2.90;;;16.60;99.90;;;;;;5074512;28;20197;-57
2023/08/07 07:01:25;;;;;;;5.73;3.13;;;16.70;99.90;;;;;;5095313;28;20186;-67
2023/08/07 07:03:52;;;;;;;3.10;2.60;;;16.70;99.90;;;;;;5093888;28;20220;-58
2023/08/07 07:06:18;;;;;;;3.93;2.47;;;16.90;99.90;;;;;;5091801;28;20186;-59
2023/08/07 07:08:44;;;;;;;3.13;2.37;;;17.00;99.90;;;;;;5094261;28;20638;-68
2023/08/07 07:11:09;;;;;;;4.30;2.27;;;17.00;99.90;;;;;;5093129;28;20283;-70
2023/08/07 07:13:35;;;;;;;6.37;2.70;;;17.10;99.90;;;;;;5088051;28;20613;-71
2023/08/07 07:16:00;;;;;;;3.17;2.27;;;17.20;99.90;;;;;;5101522;28;20273;-71
2023/08/07 07:21:00;;;;;;;3.10;2.70;;;17.30;99.90;;;;;;5119423;22;20240;-71
2023/08/07 07:23:25;;;;;;;3.00;1.97;;;17.30;99.90;;;;;;5100132;28;20192;-71
2023/08/07 07:25:51;;;;;;;2.30;2.00;;;17.20;99.90;;;;;;5095049;28;20189;-59
2023/08/07 07:28:17;;;;;;;5.97;2.80;;;17.20;99.90;;;;;;5100957;28;20208;-71
2023/08/07 07:30:42;;;;;;;4.27;2.03;;;17.30;99.90;;;;;;5102549;28;20189;-61
2023/08/07 07:33:07;;;;;;;4.60;2.20;;;17.30;99.90;;;;;;5081434;28;20232;-64
2023/08/07 07:35:38;;;;;;;2.73;1.80;;;17.40;99.90;;;;;;5100464;28;20540;-62
2023/08/07 07:38:03;;;;;;;4.33;2.60;;;17.40;99.90;;;;;;5099455;28;20976;-64
2023/08/07 07:40:29;;;;;;;5.10;1.73;;;17.40;99.90;;;;;;5083811;28;20189;-66
2023/08/07 07:42:54;;;;;;;2.63;1.87;;;17.40;99.90;;;;;;5097470;28;20207;-64
2023/08/07 07:45:20;;;;;;;8.33;2.13;;;17.50;99.90;;;;;;5081225;28;20197;-68
2023/08/07 07:47:45;;;;;;;2.53;1.87;;;17.50;99.90;;;;;;5097146;28;20257;-65
2023/08/07 07:50:12;;;;;;;2.80;1.80;;;17.50;99.90;;;;;;5102005;28;20197;-71
2023/08/07 07:52:38;;;;;;;2.07;1.80;;;17.50;99.90;;;;;;5088708;28;20193;-60
2023/08/07 07:55:04;;;;;;;4.27;2.40;;;17.70;99.90;;;;;;5100400;28;20966;-69
2023/08/07 07:57:30;;;;;;;6.37;2.03;;;17.70;99.90;;;;;;5082376;28;20310;-71
2023/08/07 07:59:56;;;;;;;3.00;2.20;;;17.70;99.90;;;;;;5094867;28;20264;-71
2023/08/07 08:02:24;;;;;;;8.67;2.30;;;17.70;99.90;;;;;;5092051;28;20208;-70
2023/08/07 08:04:50;;;;;;;3.23;2.23;;;17.70;99.90;;;;;;5103053;28;20184;-70
2023/08/07 08:07:16;;;;;;;3.30;2.37;;;17.80;99.90;;;;;;5055278;22;20268;-67
2023/08/07 08:09:41;;;;;;;8.10;2.53;;;17.70;99.90;;;;;;5029306;28;20286;-68
2023/08/07 08:12:08;;;;;;;3.27;2.10;;;17.80;99.90;;;;;;5056593;28;20198;-57
2023/08/07 08:14:33;;;;;;;4.63;2.20;;;17.80;99.90;;;;;;5037697;28;20233;-68
2023/08/07 08:16:58;;;;;;;3.37;1.80;;;17.80;99.90;;;;;;5043792;28;20729;-60
2023/08/07 08:19:24;;;;;;;5.43;2.10;;;17.90;99.90;;;;;;5045674;28;20226;-63
2023/08/07 08:21:49;;;;;;;6.40;2.87;;;17.90;99.90;;;;;;5055936;28;20194;-57
2023/08/07 08:24:15;;;;;;;4.97;2.17;;;17.90;99.90;;;;;;5055086;28;20700;-57
2023/08/07 08:26:40;;;;;;;4.07;2.33;;;18.00;99.90;;;;;;5057682;28;20569;-58
2023/08/07 08:29:07;;;;;;;2.97;2.77;;;17.90;99.90;;;;;;5042306;28;20749;-57
2023/08/07 08:31:36;;;;;;;2.80;2.47;;;18.00;99.90;;;;;;5061350;28;20190;-57
2023/08/07 08:34:01;;;;;;;2.83;2.50;;;18.00;99.90;;;;;;5066105;28;20557;-56
2023/08/07 08:36:27;;;;;;;2.03;1.93;;;17.90;99.90;;;;;;5061670;28;20202;-63
2023/08/07 08:38:52;;;;;;;3.33;2.37;;;17.90;99.90;;;;;;5039966;28;20224;-57
2023/08/07 08:41:19;;;;;;;2.83;2.40;;;17.90;99.90;;;;;;5064693;28;20198;-57
2023/08/07 08:43:49;;;;;;;4.67;2.80;;;17.90;99.90;;;;;;5066011;28;20695;-60
2023/08/07 08:46:16;;;;;;;3.00;2.20;;;18.00;99.90;;;;;;5045651;28;20350;-67
2023/08/07 08:48:46;;;;;;;3.93;2.13;;;18.10;99.90;;;;;;5041441;28;20310;-56
2023/08/07 08:51:13;;;;;;;2.73;2.40;;;18.20;99.90;;;;;;5053538;28;20713;-57
2023/08/07 08:53:39;;;;;;;4.43;2.13;;;18.30;99.90;;;;;;5053791;28;20191;-57
2023/08/07 08:56:06;;;;;;;3.10;1.87;;;18.30;99.90;;;;;;5058696;28;20962;-62
2023/08/07 08:58:32;;;;;;;2.67;2.13;;;18.30;99.90;;;;;;5055843;28;20656;-56
2023/08/07 09:00:57;;;;;;;3.03;1.97;;;18.40;99.90;;;;;;5050801;28;20676;-57
2023/08/07 09:03:24;;;;;;;5.10;2.53;;;18.40;99.90;;;;;;5062585;28;20198;-60
2023/08/07 09:05:54;;;;;;;3.27;2.00;;;18.50;99.90;;;;;;5059342;28;20271;-61
2023/08/07 09:08:20;;;;;;;9.03;2.30;;;18.60;99.90;;;;;;5052417;28;20195;-62
2023/08/07 09:10:46;;;;;;;2.63;2.10;;;18.50;99.90;;;;;;5123085;22;20226;-60
2023/08/07 09:13:14;;;;;;;2.20;2.10;;;18.50;99.90;;;;;;5073323;28;20201;-61
2023/08/07 09:15:47;;;;;;;2.43;2.23;;;18.00;99.90;;;;;;5060733;28;20635;-62
2023/08/07 09:18:13;;;;;;;3.60;1.97;;;17.80;99.90;;;;;;5076937;28;20687;-63
2023/08/07 09:20:39;;;;;;;2.47;2.20;;;17.70;99.90;;;;;;5073755;28;20237;-62
2023/08/07 09:23:05;;;;;;;3.60;2.00;;;17.80;99.90;;;;;;5081214;28;20185;-62
2023/08/07 09:25:32;;;;;;;4.50;2.10;;;17.90;99.90;;;;;;5076763;28;20211;-61
2023/08/07 09:28:01;;;;;;;2.13;1.80;;;18.10;99.90;;;;;;5078917;28;20737;-59
2023/08/07 09:30:28;;;;;;;1.97;1.70;;;18.10;99.90;;;;;;5077810;28;20197;-56
2023/08/07 09:32:56;;;;;;;3.33;2.13;;;18.20;99.90;;;;;;5063145;28;20189;-58
2023/08/07 09:35:21;;;;;;;7.03;2.43;;;18.30;99.90;;;;;;5081082;28;20197;-56
2023/08/07 09:37:47;;;;;;;2.40;2.10;;;18.40;99.90;;;;;;5081967;28;20216;-57
2023/08/07 09:40:15;;;;;;;3.10;2.10;;;18.40;99.90;;;;;;5066172;28;20213;-57
2023/08/07 09:42:41;;;;;;;2.67;2.10;;;18.40;99.90;;;;;;5084858;28;20679;-57
2023/08/07 09:45:27;;;;;;;5.73;2.90;;;18.50;99.90;;;;;;5082821;28;20209;-56
2023/08/07 09:48:03;;;;;;;10.53;3.20;;;18.50;99.90;;;;;;5083270;28;20188;-65
2023/08/07 09:50:29;;;;;;;3.20;2.10;;;18.50;99.90;;;;;;5065875;28;20193;-62
2023/08/07 09:52:55;;;;;;;3.63;1.80;;;18.60;99.90;;;;;;5085366;28;20204;-63
2023/08/07 09:55:22;;;;;;;3.27;2.00;;;18.60;99.90;;;;;;5070632;28;20205;-61
2023/08/07 09:57:49;;;;;;;3.50;1.63;;;18.50;99.90;;;;;;5130186;22;20241;-63
2023/08/07 10:00:15;;;;;;;2.90;2.00;;;18.50;99.90;;;;;;5078703;28;20232;-63
2023/08/07 10:02:42;;;;;;;1.90;1.80;;;18.50;99.90;;;;;;5080859;28;20181;-61
2023/08/07 10:05:10;;;;;;;4.73;1.97;;;18.60;99.90;;;;;;5063419;28;20642;-61
2023/08/07 10:07:37;;;;;;;2.13;1.40;;;18.60;99.90;;;;;;5084279;28;20656;-61
2023/08/07 10:10:03;;;;;;;6.20;1.77;;;18.70;99.90;;;;;;5080527;28;20281;-61
2023/08/07 10:12:29;;;;;;;4.90;1.80;;;18.40;99.90;;;;;;5084467;28;20234;-61
2023/08/07 10:14:55;;;;;;;9.80;2.27;;;18.50;99.90;;;;;;5062520;28;20201;-56
2023/08/07 10:17:22;;;;;;;3.17;1.47;;;18.50;99.90;;;;;;5084048;28;20221;-57
2023/08/07 10:19:48;;;;;;;2.10;1.60;;;18.40;99.90;;;;;;5078552;28;20239;-57
2023/08/07 10:22:15;;;;;;;2.93;1.60;;;18.40;99.90;;;;;;5081732;28;20190;-57
2023/08/07 10:24:43;;;;;;;4.20;1.47;;;18.50;99.90;;;;;;5084012;28;20229;-57
2023/08/07 10:27:11;;;;;;;3.13;2.17;;;18.60;99.90;;;;;;5084132;28;20238;-62
2023/08/07 10:29:38;;;;;;;3.90;1.70;;;18.60;99.90;;;;;;5057915;28;20182;-56
2023/08/07 10:32:07;;;;;;;1.77;1.30;;;18.70;99.90;;;;;;5070516;28;20374;-55
2023/08/07 10:34:37;;;;;;;1.30;1.23;;;18.70;99.90;;;;;;5082330;28;20205;-56
2023/08/07 10:37:06;;;;;;;1.57;1.40;;;18.60;99.90;;;;;;5081817;28;20244;-57
2023/08/07 10:39:32;;;;;;;2.93;1.40;;;18.70;99.90;;;;;;5082281;28;20201;-66
2023/08/07 10:41:58;;;;;;;2.80;1.30;;;18.80;99.90;;;;;;5084368;28;20180;-66
2023/08/07 10:44:33;;;;;;;2.40;1.30;;;18.70;99.90;;;;;;5068328;28;20201;-71
2023/08/07 10:46:58;;;;;;;4.77;1.57;;;18.90;99.90;;;;;;5079300;28;20575;-64
2023/08/07 10:49:37;;;;;;;1.73;1.37;;;19.10;99.90;;;;;;5146086;22;20837;-65
2023/08/07 10:52:17;;;;;;;1.40;1.30;;;18.60;99.90;;;;;;5093638;28;20200;-65
2023/08/07 10:54:47;;;;;;;1.40;1.13;;;18.60;99.90;;;;;;5104533;28;20193;-62
2023/08/07 10:57:14;;;;;;;2.33;1.47;;;18.40;99.90;;;;;;5096321;28;20219;-61
2023/08/07 10:59:50;;;;;;;2.30;1.30;;;18.50;99.90;;;;;;5083625;28;20197;-63
2023/08/07 11:02:25;;;;;;;1.53;1.40;;;18.60;99.90;;;;;;5101848;28;20210;-63
2023/08/07 11:04:52;;;;;;;3.23;1.53;;;18.70;99.90;;;;;;5104239;28;20195;-62
2023/08/07 11:07:26;;;;;;;3.70;1.80;;;18.30;99.90;;;;;;5102284;28;20695;-61
2023/08/07 11:09:52;;;;;;;5.87;1.73;;;17.60;99.90;;;;;;5110731;27;20287;-64
2023/08/07 11:12:17;;;;;;;4.57;2.23;;;16.70;99.90;;;;;;5098800;28;20430;-61
2023/08/07 11:14:42;;;;;;;4.50;2.40;;;16.40;99.90;;;;;;5096943;28;20216;-57
2023/08/07 11:17:09;;;;;;;3.13;2.50;;;16.40;99.90;;;;;;5095491;28;20217;-61
2023/08/07 11:19:35;;;;;;;5.20;2.80;;;16.30;99.90;;;;;;5116407;27;20212;-57
2023/08/07 11:22:01;;;;;;;4.87;3.20;;;16.40;99.90;;;;;;5108191;27;20316;-57
2023/08/07 11:24:27;;;;;;;4.13;3.13;;;16.30;99.90;;;;;;5097610;27;20267;-57
2023/08/07 11:26:55;;;;;;;3.30;2.53;;;16.40;99.90;;;;;;5113514;27;20189;-57
2023/08/07 11:29:22;;;;;;;4.03;2.30;;;16.30;99.90;;;;;;5114674;27;20188;-62
2023/08/07 11:31:48;;;;;;;5.93;3.33;;;16.40;99.90;;;;;;5114208;27;20204;-58
2023/08/07 11:34:13;;;;;;;4.00;2.53;;;16.40;99.90;;;;;;5116168;27;20269;-61
2023/08/07 11:36:43;;;;;;;5.63;2.60;;;16.40;99.90;;;;;;5090636;27;20300;-58
2023/08/07 11:39:09;;;;;;;4.07;2.67;;;16.30;99.90;;;;;;5111476;27;20256;-60
2023/08/07 11:41:34;;;;;;;4.23;2.37;;;16.30;99.90;;;;;;5109030;27;20278;-60
2023/08/07 11:43:59;;;;;;;6.33;2.60;;;16.50;99.90;;;;;;5116001;27;20275;-61
2023/08/07 11:46:26;;;;;;;3.47;2.47;;;16.70;99.90;;;;;;5107665;27;20204;-62
2023/08/07 11:48:54;;;;;;;3.83;3.03;;;16.90;99.90;;;;;;5109693;27;20477;-62
2023/08/07 11:51:20;;;;;;;7.13;2.83;;;17.10;99.90;;;;;;5111972;27;20261;-61
2023/08/07 11:53:46;;;;;;;5.13;2.40;;;17.40;99.90;;;;;;5114790;27;20316;-62
2023/08/07 11:56:16;;;;;;;5.03;2.67;;;17.70;99.90;;;;;;5118667;27;20768;-63
2023/08/07 11:58:45;;;;;;;6.80;2.30;;;17.90;99.90;;;;;;5096710;27;20177;-57
2023/08/07 12:01:17;;;;;;;4.87;2.70;;;18.20;99.90;;;;;;5107727;27;20185;-56
2023/08/07 12:03:55;;;;;;;6.37;2.30;;;18.50;99.90;;;;;;5117080;27;20617;-56
2023/08/07 12:06:21;;;;;;;6.80;2.47;;;18.50;99.90;;;;;;5108901;27;20208;-55
2023/08/07 12:08:50;;;;;;;3.50;2.10;;;18.50;99.90;;;;;;5099200;27;20176;-58
2023/08/07 12:11:16;;;;;;;5.03;2.30;;;18.60;99.90;;;;;;5111524;27;20232;-58
2023/08/07 12:13:44;;;;;;;2.80;1.50;;;18.50;99.90;;;;;;5115251;27;20199;-58
2023/08/07 12:16:15;;;;;;;3.60;1.63;;;18.40;99.90;;;;;;5113327;27;20196;-59
2023/08/07 12:18:47;;;;;;;3.53;2.13;;;18.40;99.90;;;;;;5112072;27;20336;-58
2023/08/07 12:21:23;;;;;;;3.27;2.10;;;18.50;99.90;;;;;;5110518;27;20204;-58
2023/08/07 12:23:49;;;;;;;5.10;1.93;;;18.60;99.90;;;;;;5114451;27;20653;-59
2023/08/07 12:26:15;;;;;;;3.10;2.00;;;18.80;99.90;;;;;;5111156;27;20200;-65
2023/08/07 12:28:41;;;;;;;2.93;1.97;;;18.80;99.90;;;;;;5094896;27;20177;-58
2023/08/07 12:31:06;;;;;;;3.73;2.43;;;18.90;99.90;;;;;;5110749;27;20792;-57
2023/08/07 12:33:32;;;;;;;3.83;2.03;;;18.70;99.90;;;;;;5113984;27;20889;-60
2023/08/07 12:35:59;;;;;;;2.93;1.83;;;18.70;99.90;;;;;;5113102;27;20211;-56
2023/08/07 12:38:24;;;;;;;2.70;1.53;;;18.50;99.90;;;;;;5112653;27;20199;-59
2023/08/07 12:40:50;;;;;;;3.50;1.93;;;18.40;99.90;;;;;;5114137;27;20650;-57
2023/08/07 12:43:16;;;;;;;4.37;2.17;;;18.40;99.90;;;;;;5113061;27;20212;-57
2023/08/07 12:45:42;;;;;;;8.33;2.57;;;18.30;99.90;;;;;;5110928;27;20217;-57